createdAt,value
2018-10-12T00:01:38.983Z,100353.85
2018-10-12T00:04:08.530Z,100356.47
2018-10-12T00:06:37.731Z,100362.80
2018-10-12T00:09:08.936Z,100361.28
2018-10-12T00:11:38.310Z,100362.85
2018-10-12T00:14:07.876Z,100359.21
2018-10-12T00:16:37.189Z,100368.05
2018-10-12T00:19:06.476Z,100366.31
2018-10-12T00:21:35.667Z,100369.14
2018-10-12T00:24:07.664Z,100373.69
2018-10-12T00:26:36.884Z,100375.03
2018-10-12T00:29:06.399Z,100380.34
2018-10-12T00:31:35.643Z,100390.09
2018-10-12T00:34:04.820Z,100387.83
2018-10-12T00:36:34.023Z,100398.02
2018-10-12T00:39:03.313Z,100392.91
2018-10-12T00:41:32.520Z,100395.71
2018-10-12T00:44:01.700Z,100396.89
2018-10-12T00:46:30.899Z,100399.80
2018-10-12T00:49:00.083Z,100404.88
2018-10-12T00:51:29.275Z,100407.56
2018-10-12T00:53:58.451Z,100411.92
2018-10-12T00:56:27.674Z,100413.40
2018-10-12T00:58:56.851Z,100416.41
2018-10-12T01:01:26.082Z,100409.02
2018-10-12T01:03:55.287Z,100406.75
2018-10-12T01:06:27.479Z,100407.70
2018-10-12T01:08:56.655Z,100395.47
2018-10-12T01:11:25.897Z,100401.17
2018-10-12T01:13:55.138Z,100386.55
2018-10-12T01:16:24.397Z,100402.31
2018-10-12T01:18:53.577Z,100404.91
2018-10-12T01:21:22.794Z,100412.91
2018-10-12T01:23:52.029Z,100413.83
2018-10-12T01:26:21.273Z,100403.91
2018-10-12T01:28:54.312Z,100417.17
2018-10-12T01:31:23.828Z,100410.13
2018-10-12T01:33:53.265Z,100415.42
2018-10-12T01:36:22.645Z,100416.34
2018-10-12T01:38:51.832Z,100420.41
2018-10-12T01:41:21.081Z,100416.25
2018-10-12T01:43:50.304Z,100418.34
2018-10-12T01:46:19.525Z,100422.17
2018-10-12T01:48:48.751Z,100418.86
2018-10-12T01:51:18.245Z,100420.73
2018-10-12T01:53:47.444Z,100416.17
2018-10-12T01:56:16.683Z,100419.70
2018-10-12T01:58:45.906Z,100428.00
2018-10-12T02:01:15.590Z,100427.25
2018-10-12T02:03:44.815Z,100430.89
2018-10-12T02:06:14.715Z,100435.02
2018-10-12T02:08:43.935Z,100446.53
2018-10-12T02:11:13.194Z,100444.16
2018-10-12T02:13:42.431Z,100450.87
2018-10-12T02:16:11.811Z,100458.42
2018-10-12T02:18:41.045Z,100457.08
2018-10-12T02:21:10.912Z,100459.67
2018-10-12T02:23:40.123Z,100463.89
2018-10-12T02:26:09.360Z,100452.19
2018-10-12T02:28:41.350Z,100456.56
2018-10-12T02:31:10.539Z,100468.06
2018-10-12T02:33:39.748Z,100475.91
2018-10-12T02:36:08.971Z,100482.82
2018-10-12T02:38:38.227Z,100488.94
2018-10-12T02:41:08.152Z,100490.42
2018-10-12T02:43:37.376Z,100489.45
2018-10-12T02:46:06.667Z,100494.84
2018-10-12T02:48:35.932Z,100500.26
2018-10-12T02:51:05.178Z,100499.02
2018-10-12T02:53:34.409Z,100495.19
2018-10-12T02:56:03.620Z,100499.42
2018-10-12T02:58:32.957Z,100502.39
2018-10-12T03:01:02.207Z,100505.35
2018-10-12T03:03:31.453Z,100502.45
2018-10-12T03:06:00.708Z,100505.03
2018-10-12T03:08:29.901Z,100504.97
2018-10-12T03:10:59.172Z,100509.39
2018-10-12T03:13:28.356Z,100510.72
2018-10-12T03:15:57.580Z,100510.26
2018-10-12T03:18:26.807Z,100515.86
2018-10-12T03:20:56.028Z,100512.80
2018-10-12T03:23:25.245Z,100519.47
2018-10-12T03:25:54.495Z,100528.48
2018-10-12T03:28:30.705Z,100532.10
2018-10-12T03:31:00.465Z,100538.72
2018-10-12T03:33:30.099Z,100539.23
2018-10-12T03:35:59.471Z,100540.28
2018-10-12T03:38:28.792Z,100545.19
2018-10-12T03:40:58.098Z,100540.12
2018-10-12T03:43:27.352Z,100540.06
2018-10-12T03:45:56.597Z,100544.36
2018-10-12T03:48:25.819Z,100546.69
2018-10-12T03:50:55.081Z,100550.67
2018-10-12T03:53:24.305Z,100553.30
2018-10-12T03:55:53.584Z,100562.58
2018-10-12T03:58:22.813Z,100561.11
2018-10-12T04:00:52.078Z,100569.02
2018-10-12T04:03:21.313Z,100563.20
2018-10-12T04:05:50.539Z,100565.23
2018-10-12T04:08:20.441Z,100563.03
2018-10-12T04:10:49.649Z,100576.91
2018-10-12T04:13:18.851Z,100582.72
2018-10-12T04:15:48.162Z,100582.38
2018-10-12T04:18:17.957Z,100583.20
2018-10-12T04:20:47.157Z,100577.94
2018-10-12T04:23:16.915Z,100585.06
2018-10-12T04:25:46.115Z,100583.26
2018-10-12T04:28:18.600Z,100587.17
2018-10-12T04:30:47.779Z,100586.61
2018-10-12T04:33:17.108Z,100588.84
2018-10-12T04:35:46.291Z,100582.95
2018-10-12T04:38:16.177Z,100587.09
2018-10-12T04:40:56.644Z,100593.47
2018-10-12T04:43:25.903Z,100604.86
2018-10-12T04:45:55.127Z,100602.26
2018-10-12T04:48:24.389Z,100602.63
2018-10-12T04:50:53.924Z,100609.98
2018-10-12T04:53:23.218Z,100621.08
2018-10-12T04:55:52.860Z,100627.33
2018-10-12T04:58:22.104Z,100634.64
2018-10-12T05:00:51.368Z,100625.62
2018-10-12T05:03:21.751Z,100627.80
2018-10-12T05:05:50.950Z,100627.33
2018-10-12T05:08:20.187Z,100634.56
2018-10-12T05:10:49.582Z,100643.45
2018-10-12T05:13:18.826Z,100645.00
2018-10-12T05:15:48.049Z,100653.98
2018-10-12T05:18:17.331Z,100644.30
2018-10-12T05:20:49.327Z,100654.23
2018-10-12T05:23:18.561Z,100658.73
2018-10-12T05:25:47.736Z,100662.56
2018-10-12T05:28:16.960Z,100658.58
2018-10-12T05:30:46.320Z,100662.56
2018-10-12T05:33:15.543Z,100667.11
2018-10-12T05:35:45.004Z,100661.73
2018-10-12T05:38:14.259Z,100668.78
2018-10-12T05:40:43.534Z,100672.73
2018-10-12T05:43:14.675Z,100676.02
2018-10-12T05:45:43.994Z,100671.19
2018-10-12T05:48:24.423Z,100670.36
2018-10-12T05:50:53.656Z,100680.68
2018-10-12T05:53:22.882Z,100685.93
2018-10-12T05:55:52.365Z,100691.41
2018-10-12T05:58:21.731Z,100705.80
2018-10-12T06:00:51.297Z,100702.52
2018-10-12T06:03:20.524Z,100697.34
2018-10-12T06:05:49.751Z,100700.12
2018-10-12T06:08:18.970Z,100706.41
2018-10-12T06:10:48.236Z,100712.56
2018-10-12T06:13:17.575Z,100719.94
2018-10-12T06:15:46.859Z,100707.06
2018-10-12T06:18:16.001Z,100719.11
2018-10-12T06:20:45.207Z,100717.53
2018-10-12T06:23:14.397Z,100706.95
2018-10-12T06:25:43.597Z,100701.58
2018-10-12T06:28:12.815Z,100709.44
2018-10-12T06:30:42.034Z,100716.81
2018-10-12T06:33:11.492Z,100726.09
2018-10-12T06:35:40.696Z,100731.92
2018-10-12T06:38:09.959Z,100751.64
2018-10-12T06:40:39.257Z,100765.27
2018-10-12T06:43:08.860Z,100764.41
2018-10-12T06:45:38.090Z,100763.45
2018-10-12T06:48:07.387Z,100773.14
2018-10-12T06:50:36.577Z,100778.11
2018-10-12T06:53:05.875Z,100766.88
2018-10-12T06:55:35.155Z,100775.59
2018-10-12T06:58:04.343Z,100793.27
2018-10-12T07:00:33.610Z,100779.56
2018-10-12T07:03:02.931Z,100790.75
2018-10-12T07:05:32.266Z,100794.13
2018-10-12T07:08:01.702Z,100786.49
2018-10-12T07:10:31.196Z,100780.44
2018-10-12T07:13:00.651Z,100785.97
2018-10-12T07:15:29.945Z,100780.17
2018-10-12T07:17:59.135Z,100786.92
2018-10-12T07:20:28.888Z,100798.05
2018-10-12T07:22:58.082Z,100795.81
2018-10-12T07:25:27.291Z,100802.86
2018-10-12T07:27:56.469Z,100796.61
2018-10-12T07:30:25.991Z,100799.71
2018-10-12T07:32:55.186Z,100803.92
2018-10-12T07:35:24.387Z,100806.72
2018-10-12T07:37:53.556Z,100803.98
2018-10-12T07:40:22.749Z,100801.66
2018-10-12T07:42:51.960Z,100799.19
2018-10-12T07:45:21.171Z,100806.24
2018-10-12T07:47:50.394Z,100804.86
2018-10-12T07:50:19.584Z,100795.47
2018-10-12T07:52:48.828Z,100803.03
2018-10-12T07:55:18.035Z,100801.23
2018-10-12T07:57:47.257Z,100804.74
2018-10-12T08:00:16.637Z,100819.92
2018-10-12T08:02:45.736Z,100829.30
2018-10-12T08:05:14.963Z,100844.42
2018-10-12T08:07:44.423Z,100837.61
2018-10-12T08:10:13.706Z,100826.97
2018-10-12T08:12:42.907Z,100826.23
2018-10-12T08:15:12.845Z,100825.61
2018-10-12T08:17:42.118Z,100827.27
2018-10-12T08:20:12.977Z,100839.95
2018-10-12T08:22:42.180Z,100835.44
2018-10-12T08:25:12.125Z,100836.06
2018-10-12T08:27:41.608Z,100840.98
2018-10-12T08:30:11.500Z,100851.13
2018-10-12T08:32:40.761Z,100855.39
2018-10-12T08:35:10.479Z,100857.66
2018-10-12T08:37:39.687Z,100855.24
2018-10-12T08:40:09.498Z,100862.82
2018-10-12T08:42:38.736Z,100862.31
2018-10-12T08:45:07.947Z,100872.57
2018-10-12T08:47:37.172Z,100874.72
2018-10-12T08:50:06.522Z,100878.19
2018-10-12T08:52:38.613Z,100873.86
2018-10-12T08:55:08.015Z,100878.33
2018-10-12T08:57:37.293Z,100876.89
2018-10-12T09:00:06.572Z,100877.60
2018-10-12T09:02:35.821Z,100876.78
2018-10-12T09:05:05.109Z,100875.47
2018-10-12T09:07:34.319Z,100887.14
2018-10-12T09:10:03.716Z,100887.14
2018-10-12T09:12:32.903Z,100883.19
2018-10-12T09:15:02.142Z,100884.05
2018-10-12T09:17:31.402Z,100882.80
2018-10-12T09:20:00.609Z,100874.13
2018-10-12T09:22:29.819Z,100875.05
2018-10-12T09:24:59.086Z,100871.77
2018-10-12T09:27:28.323Z,100876.33
2018-10-12T09:29:57.502Z,100879.30
2018-10-12T09:32:26.746Z,100879.38
2018-10-12T09:34:56.004Z,100877.89
2018-10-12T09:37:25.869Z,100888.18
2018-10-12T09:39:55.166Z,100883.18
2018-10-12T09:42:24.595Z,100883.02
2018-10-12T09:44:53.846Z,100873.59
2018-10-12T09:47:23.327Z,100882.59
2018-10-12T09:49:52.538Z,100887.47
2018-10-12T09:52:21.723Z,100880.50
2018-10-12T09:54:51.567Z,100883.38
2018-10-12T09:57:24.861Z,100878.31
2018-10-12T09:59:54.416Z,100873.97
2018-10-12T10:02:29.333Z,100874.15
2018-10-12T10:05:04.541Z,100874.34
2018-10-12T10:07:35.112Z,100872.50
2018-10-12T10:10:06.260Z,100875.08
2018-10-12T10:12:35.476Z,100861.06
2018-10-12T10:15:04.764Z,100863.20
2018-10-12T10:17:33.961Z,100866.51
2018-10-12T10:20:03.865Z,100869.56
2018-10-12T10:22:33.119Z,100867.52
2018-10-12T10:25:02.364Z,100856.09
2018-10-12T10:27:31.514Z,100858.31
2018-10-12T10:30:00.930Z,100864.64
2018-10-12T10:32:30.105Z,100862.70
2018-10-12T10:34:59.270Z,100863.11
2018-10-12T10:37:28.459Z,100860.85
2018-10-12T10:39:57.707Z,100863.23
2018-10-12T10:42:26.949Z,100856.98
2018-10-12T10:44:56.145Z,100844.97
2018-10-12T10:47:25.378Z,100845.20
2018-10-12T10:49:54.604Z,100842.65
2018-10-12T10:52:23.802Z,100845.64
2018-10-12T10:54:53.007Z,100841.59
2018-10-12T10:57:22.239Z,100834.19
2018-10-12T10:59:51.474Z,100828.68
2018-10-12T11:02:20.736Z,100825.17
2018-10-12T11:04:49.934Z,100813.37
2018-10-12T11:07:19.367Z,100822.86
2018-10-12T11:09:48.588Z,100820.17
2018-10-12T11:12:17.946Z,100815.64
2018-10-12T11:14:47.078Z,100816.64
2018-10-12T11:17:16.434Z,100814.70
2018-10-12T11:19:45.661Z,100806.77
2018-10-12T11:22:14.883Z,100806.75
2018-10-12T11:24:44.066Z,100805.43
2018-10-12T11:27:13.308Z,100807.88
2018-10-12T11:29:42.525Z,100811.80
2018-10-12T11:32:11.933Z,100804.28
2018-10-12T11:34:41.157Z,100809.34
2018-10-12T11:37:10.615Z,100807.09
2018-10-12T11:39:39.787Z,100802.89
2018-10-12T11:42:09.495Z,100802.80
2018-10-12T11:44:38.679Z,100802.28
2018-10-12T11:47:08.179Z,100794.32
2018-10-12T11:49:37.407Z,100795.19
2018-10-12T11:52:06.893Z,100791.21
2018-10-12T11:54:36.198Z,100789.91
2018-10-12T11:57:05.414Z,100788.34
2018-10-12T11:59:34.715Z,100786.89
2018-10-12T12:02:04.072Z,100798.48
2018-10-12T12:04:33.241Z,100785.69
2018-10-12T12:07:02.470Z,100784.88
2018-10-12T12:09:31.699Z,100786.24
2018-10-12T12:12:00.908Z,100779.95
2018-10-12T12:14:30.126Z,100774.48
2018-10-12T12:16:59.416Z,100772.92
2018-10-12T12:19:28.707Z,100768.34
2018-10-12T12:21:57.815Z,100769.25
2018-10-12T12:24:26.998Z,100764.22
2018-10-12T12:26:56.172Z,100763.77
2018-10-12T12:29:25.369Z,100762.13
2018-10-12T12:31:54.620Z,100767.38
2018-10-12T12:34:23.839Z,100760.82
2018-10-12T12:36:53.102Z,100767.06
2018-10-12T12:39:22.287Z,100763.22
2018-10-12T12:41:51.512Z,100764.77
2018-10-12T12:44:20.767Z,100767.17
2018-10-12T12:46:50.011Z,100759.12
2018-10-12T12:49:19.450Z,100758.67
2018-10-12T12:51:48.407Z,100755.67
2018-10-12T12:54:17.601Z,100753.80
2018-10-12T12:56:46.793Z,100750.47
2018-10-12T12:59:16.031Z,100755.44
2018-10-12T13:01:45.229Z,100756.53
2018-10-12T13:04:14.516Z,100754.94
2018-10-12T13:06:43.715Z,100757.17
2018-10-12T13:09:12.894Z,100757.16
2018-10-12T13:11:42.085Z,100759.05
2018-10-12T13:14:11.439Z,100753.60
2018-10-12T13:16:40.649Z,100756.03
2018-10-12T13:19:10.250Z,100757.12
2018-10-12T13:21:39.469Z,100752.51
2018-10-12T13:24:08.764Z,100751.64
2018-10-12T13:26:38.115Z,100753.20
2018-10-12T13:29:07.489Z,100758.63
2018-10-12T13:31:36.708Z,100749.05
2018-10-12T13:34:05.920Z,100758.72
2018-10-12T13:36:35.139Z,100757.64
2018-10-12T13:39:05.463Z,100758.09
2018-10-12T13:41:34.688Z,100759.73
2018-10-12T13:44:03.995Z,100762.52
2018-10-12T13:46:33.276Z,100757.95
2018-10-12T13:49:03.008Z,100754.66
2018-10-12T13:51:32.367Z,100755.25
2018-10-12T13:54:01.545Z,100763.23
2018-10-12T13:56:30.822Z,100759.36
2018-10-12T13:59:00.047Z,100759.97
2018-10-12T14:01:29.519Z,100754.52
2018-10-12T14:03:58.780Z,100749.25
2018-10-12T14:06:28.002Z,100742.16
2018-10-12T14:08:57.199Z,100751.44
2018-10-12T14:11:26.400Z,100746.75
2018-10-12T14:13:55.591Z,100742.37
2018-10-12T14:16:24.795Z,100746.48
2018-10-12T14:18:54.192Z,100745.93
2018-10-12T14:21:23.482Z,100745.41
2018-10-12T14:23:52.675Z,100744.52
2018-10-12T14:26:21.978Z,100745.66
2018-10-12T14:28:51.265Z,100744.25
2018-10-12T14:31:20.447Z,100744.25
2018-10-12T14:33:50.993Z,100747.53
2018-10-12T14:36:20.291Z,100753.52
2018-10-12T14:38:49.501Z,100754.62
2018-10-12T14:41:18.778Z,100751.91
2018-10-12T14:43:48.185Z,100752.98
2018-10-12T14:46:17.434Z,100750.50
2018-10-12T14:48:46.764Z,100750.19
2018-10-12T14:51:16.073Z,100752.06
2018-10-12T14:53:45.304Z,100751.29
2018-10-12T15:11:19.601Z,100759.73
2018-10-12T15:13:48.836Z,100762.13
2018-10-12T15:16:18.101Z,100760.98
2018-10-12T15:18:47.351Z,100762.35
2018-10-12T15:21:16.695Z,100763.94
2018-10-12T15:23:45.815Z,100764.09
2018-10-12T15:26:15.209Z,100754.17
2018-10-12T15:28:44.429Z,100767.00
2018-10-12T15:31:13.639Z,100759.55
2018-10-12T15:33:42.845Z,100766.92
2018-10-12T15:36:13.402Z,100768.48
2018-10-12T15:38:43.695Z,100771.14
2018-10-12T15:41:13.018Z,100769.63
2018-10-12T15:43:42.257Z,100768.25
2018-10-12T15:46:11.425Z,100774.09
2018-10-12T15:48:40.642Z,100777.53
2018-10-12T15:51:10.434Z,100775.98
2018-10-12T15:53:39.585Z,100773.48
2018-10-12T15:56:09.216Z,100779.34
2018-10-12T15:58:38.444Z,100778.11
2018-10-12T16:01:08.858Z,100776.02
2018-10-12T16:03:38.108Z,100779.74
2018-10-12T16:06:07.378Z,100781.56
2018-10-12T16:08:36.554Z,100785.83
2018-10-12T16:11:05.844Z,100781.36
2018-10-12T16:13:35.086Z,100784.55
2018-10-12T16:16:04.421Z,100783.09
2018-10-12T16:18:33.682Z,100783.28
2018-10-12T16:21:03.127Z,100782.05
2018-10-12T16:23:32.395Z,100780.23
2018-10-12T16:26:20.599Z,100787.82
2018-10-12T16:28:49.918Z,100789.59
2018-10-12T16:31:19.146Z,100784.50
2018-10-12T16:33:48.351Z,100784.03
2018-10-12T16:36:17.631Z,100795.05
2018-10-12T16:38:46.785Z,100798.13
2018-10-12T16:41:16.674Z,100799.92
2018-10-12T16:43:45.952Z,100798.19
2018-10-12T16:46:15.375Z,100805.38
2018-10-12T16:48:44.626Z,100806.59
2018-10-12T16:51:13.948Z,100809.95
2018-10-12T16:53:43.215Z,100811.47
2018-10-12T16:56:12.412Z,100818.16
2018-10-12T16:58:41.664Z,100812.05
2018-10-12T17:01:11.449Z,100820.38
2018-10-12T17:03:40.695Z,100814.89
2018-10-12T17:06:11.008Z,100814.60
2018-10-12T17:08:40.261Z,100818.39
2018-10-12T17:11:09.970Z,100818.22
2018-10-12T17:13:39.314Z,100818.66
2018-10-12T17:16:09.209Z,100821.02
2018-10-12T17:18:39.613Z,100824.80
2018-10-12T17:21:08.868Z,100824.75
2018-10-12T17:23:38.935Z,100827.43
2018-10-12T17:26:08.178Z,100823.51
2018-10-12T17:28:37.367Z,100824.87
2018-10-12T17:31:06.698Z,100820.80
2018-10-12T17:33:35.999Z,100834.84
2018-10-12T17:36:05.206Z,100835.72
2018-10-12T17:38:34.492Z,100841.16
2018-10-12T17:41:16.437Z,100841.77
2018-10-12T17:43:45.696Z,100840.59
2018-10-12T17:46:16.164Z,100847.48
2018-10-12T17:48:45.437Z,100844.47
2018-10-12T17:51:15.078Z,100845.72
2018-10-12T17:53:44.317Z,100842.17
2018-10-12T17:56:14.193Z,100849.61
2018-10-12T17:58:43.386Z,100848.19
2018-10-12T18:01:13.132Z,100848.72
2018-10-12T18:03:42.372Z,100848.19
2018-10-12T18:06:11.659Z,100848.54
2018-10-12T18:08:40.919Z,100851.20
2018-10-12T18:11:10.267Z,100856.05
2018-10-12T18:13:39.476Z,100847.75
2018-10-12T18:16:08.684Z,100856.38
2018-10-12T18:18:37.914Z,100863.53
2018-10-12T18:21:07.237Z,100862.17
2018-10-12T18:23:36.460Z,100862.44
2018-10-12T18:26:05.854Z,100862.35
2018-10-12T18:28:35.077Z,100866.25
2018-10-12T18:31:04.347Z,100856.05
2018-10-12T18:33:33.570Z,100857.56
2018-10-12T18:36:02.803Z,100863.98
2018-10-12T18:38:32.833Z,100863.11
2018-10-12T18:41:02.149Z,100859.17
2018-10-12T18:43:31.398Z,100865.46
2018-10-12T18:46:00.591Z,100870.83
2018-10-12T18:48:29.845Z,100873.02
2018-10-12T18:50:59.084Z,100870.59
2018-10-12T18:53:28.303Z,100871.13
2018-10-12T18:55:57.469Z,100871.13
2018-10-12T18:58:26.691Z,100868.88
2018-10-12T19:00:57.439Z,100872.89
2018-10-12T19:03:26.681Z,100876.58
2018-10-12T19:05:55.956Z,100869.19
2018-10-12T19:08:25.211Z,100874.86
2018-10-12T19:10:54.445Z,100873.80
2018-10-12T19:13:23.699Z,100868.53
2018-10-12T19:15:53.008Z,100874.17
2018-10-12T19:18:22.224Z,100871.98
2018-10-12T19:20:51.603Z,100880.66
2018-10-12T19:23:20.904Z,100878.31
2018-10-12T19:25:50.149Z,100884.81
2018-10-12T19:28:19.643Z,100886.70
2018-10-12T19:30:49.080Z,100884.52
2018-10-12T19:33:18.803Z,100887.30
2018-10-12T19:35:48.048Z,100889.41
2018-10-12T19:38:17.368Z,100897.72
2018-10-12T19:40:46.639Z,100892.64
2018-10-12T19:43:16.540Z,100898.70
2018-10-12T19:45:45.729Z,100898.62
2018-10-12T19:48:15.767Z,100895.59
2018-10-12T19:50:44.987Z,100899.34
2018-10-12T19:53:14.991Z,100902.50
2018-10-12T19:55:44.268Z,100902.25
2018-10-12T19:58:13.674Z,100906.26
2018-10-12T20:00:42.903Z,100902.94
2018-10-12T20:03:12.578Z,100905.61
2018-10-12T20:05:41.775Z,100906.21
2018-10-12T20:08:11.004Z,100905.53
2018-10-12T20:10:40.224Z,100911.27
2018-10-12T20:13:09.483Z,100914.96
2018-10-12T20:15:38.711Z,100913.98
2018-10-12T20:18:08.010Z,100918.73
2018-10-12T20:20:37.231Z,100920.50
2018-10-12T20:23:06.503Z,100916.43
2018-10-12T20:25:35.719Z,100927.50
2018-10-12T20:28:05.075Z,100922.25
2018-10-12T20:30:34.303Z,100925.37
2018-10-12T20:33:03.541Z,100935.09
2018-10-12T20:35:32.763Z,100934.70
2018-10-12T20:38:02.033Z,100926.30
2018-10-12T20:40:31.273Z,100930.59
2018-10-12T20:43:00.526Z,100932.86
2018-10-12T20:45:29.721Z,100930.73
2018-10-12T20:47:58.925Z,100931.25
2018-10-12T20:50:28.199Z,100928.48
2018-10-12T20:52:57.388Z,100930.67
2018-10-12T20:55:26.580Z,100927.35
2018-10-12T20:57:55.796Z,100935.06
2018-10-12T21:00:25.137Z,100932.29
2018-10-12T21:02:54.295Z,100935.52
2018-10-12T21:05:23.508Z,100930.22
2018-10-12T21:07:52.677Z,100933.91
2018-10-12T21:10:21.965Z,100926.27
2018-10-12T21:12:51.206Z,100937.03
2018-10-12T21:15:20.427Z,100937.16
2018-10-12T21:17:49.624Z,100942.71
2018-10-12T21:20:19.092Z,100939.34
2018-10-12T21:22:48.299Z,100932.99
2018-10-12T21:25:18.107Z,100940.59
2018-10-12T21:27:47.308Z,100935.71
2018-10-12T21:30:17.043Z,100933.44
2018-10-12T21:32:46.246Z,100934.70
2018-10-12T21:35:16.653Z,100937.33
2018-10-12T21:37:45.815Z,100933.44
2018-10-12T21:40:15.954Z,100937.55
2018-10-12T21:42:45.244Z,100945.37
2018-10-12T21:45:15.535Z,100941.34
2018-10-12T21:47:44.688Z,100952.17
2018-10-12T21:50:14.747Z,100940.52
2018-10-12T21:52:43.999Z,100938.11
2018-10-12T21:55:13.218Z,100946.05
2018-10-12T21:57:42.393Z,100932.17
2018-10-12T22:00:12.004Z,100943.64
2018-10-12T22:02:41.267Z,100936.05
2018-10-12T22:05:10.530Z,100934.39
2018-10-12T22:07:39.747Z,100930.64
2018-10-12T22:10:09.001Z,100927.10
2018-10-12T22:12:38.251Z,100922.33
2018-10-12T22:15:07.562Z,100930.44
2018-10-12T22:17:36.775Z,100919.64
2018-10-12T22:20:06.316Z,100920.16
2018-10-12T22:22:35.511Z,100919.42
2018-10-12T22:25:04.795Z,100913.70
2018-10-12T22:27:33.987Z,100918.30
2018-10-12T22:30:03.324Z,100911.63
2018-10-12T22:32:32.539Z,100912.35
2018-10-12T22:35:01.748Z,100910.79
2018-10-12T22:37:30.935Z,100899.34
2018-10-12T22:40:00.123Z,100901.03
2018-10-12T22:42:29.346Z,100902.47
2018-10-12T22:44:58.538Z,100894.17
2018-10-12T22:47:27.739Z,100896.31
2018-10-12T22:49:56.976Z,100895.00
2018-10-12T22:52:26.187Z,100897.28
2018-10-12T22:54:55.388Z,100899.79
2018-10-12T22:57:24.630Z,100898.73
2018-10-12T22:59:53.829Z,100896.75
2018-10-12T23:02:23.070Z,100891.95
2018-10-12T23:04:52.268Z,100886.75
2018-10-12T23:07:21.490Z,100885.19
2018-10-12T23:09:50.736Z,100886.09
2018-10-12T23:12:19.973Z,100888.61
2018-10-12T23:14:49.155Z,100884.55
2018-10-12T23:17:18.502Z,100891.91
2018-10-12T23:19:47.656Z,100889.11
2018-10-12T23:22:17.089Z,100892.58
2018-10-12T23:24:46.359Z,100887.45
2018-10-12T23:27:16.011Z,100885.08
2018-10-12T23:29:45.201Z,100880.69
2018-10-12T23:32:14.933Z,100880.27
2018-10-12T23:34:44.131Z,100876.03
2018-10-12T23:37:13.977Z,100879.44
2018-10-12T23:39:43.197Z,100884.44
2018-10-12T23:42:12.891Z,100877.14
2018-10-12T23:44:42.051Z,100874.75
2018-10-12T23:47:11.253Z,100881.48
2018-10-12T23:49:40.442Z,100886.38
2018-10-12T23:52:09.627Z,100887.41
2018-10-12T23:54:38.811Z,100884.50
2018-10-12T23:57:08.325Z,100887.93
2018-10-12T23:59:37.548Z,100887.20
